Perth, Australia
Current Conditions -  °F | °C
As of 7:00 PM on Saturday 25 Oct 2014 (Local Time) from YPPH Reporting Station
Broken Clouds Broken Clouds  
Wind Chill: 64°   Ceiling: 1900
Heat Index: 64°   Visibility: 6mi
Dew Point: 59°   Wind: 13mph
Humidity: 83%   Direction: 230°SW
Pressure: 30.09"   Gusts: NA
Location:  31.96°S, 115.86°E
Report Text: YPPH 251100Z 23011KT 9999 BKN019 SCT025 18/15 Q1019 INTER 1100/1400 4000 SHRA BKN008
Loading
Personal Weather Stations






























Interactive Weather Map
Tropical Storm Tracking
New forecast layout! Learn more

10-Day Weather Forecast

Advertisements
Track Severe Weather on mobile